bureau de piste


METAR LFMD 120700Z AUTO VRB02KT 9999 FEW036 06/05 Q1001 NOSIG

TAF LFMD 120200Z 1203/1303 36006KT CAVOK   BECMG 1208/1210 25010KT   BECMG 1215/1217 VRB04KT   PROB40   TEMPO 1301/1303 27015G25KT

INFORMATION ADDS - 0708 UTC 12 Nov 2019


Plus d’information sur les terrains : LFMD et VALBERG

Les commentaires sont clos.